createdAt,value
2023-04-08T00:01:46.093Z,3.83
2023-04-08T00:04:14.509Z,3.80
2023-04-08T00:06:41.592Z,3.85
2023-04-08T00:09:08.255Z,3.78
2023-04-08T00:11:34.965Z,3.77
2023-04-08T00:14:04.008Z,3.87
2023-04-08T00:16:30.869Z,3.96
2023-04-08T00:18:57.588Z,3.90
2023-04-08T00:21:24.517Z,3.91
2023-04-08T00:23:51.128Z,3.93
2023-04-08T00:26:17.774Z,3.98
2023-04-08T00:28:45.171Z,4.00
2023-04-08T00:31:11.925Z,4.02
2023-04-08T00:33:38.712Z,4.04
2023-04-08T00:36:05.589Z,4.14
2023-04-08T00:38:32.365Z,4.15
2023-04-08T00:40:59.139Z,4.13
2023-04-08T00:43:26.060Z,4.13
2023-04-08T00:45:52.773Z,4.16
2023-04-08T00:48:19.872Z,4.18
2023-04-08T00:50:47.365Z,4.23
2023-04-08T00:53:18.912Z,4.22
2023-04-08T00:55:45.845Z,4.22
2023-04-08T00:58:14.019Z,4.26
2023-04-08T01:00:44.416Z,4.25
2023-04-08T01:03:24.676Z,4.22
2023-04-08T01:05:54.542Z,4.25
2023-04-08T01:08:22.211Z,4.22
2023-04-08T01:10:54.195Z,4.23
2023-04-08T01:13:24.437Z,4.22
2023-04-08T01:15:51.271Z,4.22
2023-04-08T01:18:18.690Z,4.22
2023-04-08T01:20:45.908Z,4.21
2023-04-08T01:23:38.300Z,4.25
2023-04-08T01:26:05.393Z,4.21
2023-04-08T01:28:33.150Z,4.21
2023-04-08T01:31:01.098Z,4.17
2023-04-08T01:33:28.954Z,4.25
2023-04-08T01:35:56.956Z,4.22
2023-04-08T01:38:25.957Z,4.29
2023-04-08T01:40:53.661Z,4.24
2023-04-08T01:43:20.635Z,4.20
2023-04-08T01:45:48.373Z,4.27
2023-04-08T01:48:15.877Z,4.21
2023-04-08T01:50:43.650Z,4.20
2023-04-08T01:53:12.939Z,4.19
2023-04-08T01:55:41.054Z,4.30
2023-04-08T01:58:09.413Z,4.36
2023-04-08T02:00:36.970Z,4.31
2023-04-08T02:03:08.154Z,4.28
2023-04-08T02:05:35.110Z,4.18
2023-04-08T02:08:02.825Z,4.20
2023-04-08T02:10:29.540Z,4.27
2023-04-08T02:12:56.996Z,4.27
2023-04-08T02:15:25.282Z,4.25
2023-04-08T02:17:55.848Z,4.20
2023-04-08T02:20:24.531Z,4.15
2023-04-08T02:23:08.362Z,4.12
2023-04-08T02:25:39.015Z,4.17
2023-04-08T02:28:08.276Z,4.16
2023-04-08T02:30:37.621Z,4.23
2023-04-08T02:33:05.788Z,4.15
2023-04-08T02:35:32.647Z,4.11
2023-04-08T02:37:59.609Z,4.08
2023-04-08T02:40:35.550Z,4.09
2023-04-08T02:43:03.850Z,4.26
2023-04-08T02:45:33.132Z,4.19
2023-04-08T02:48:01.547Z,4.15
2023-04-08T02:50:28.388Z,4.07
2023-04-08T02:52:56.007Z,4.08
2023-04-08T02:55:22.782Z,4.09
2023-04-08T02:57:49.571Z,4.02
2023-04-08T03:00:17.420Z,4.01
2023-04-08T03:02:44.246Z,4.04
2023-04-08T03:05:11.528Z,4.01
2023-04-08T03:07:38.560Z,4.00
2023-04-08T03:10:06.264Z,4.01
2023-04-08T03:12:33.135Z,4.01
2023-04-08T03:15:00.955Z,4.03
2023-04-08T03:17:27.843Z,4.03
2023-04-08T03:19:54.685Z,4.07
2023-04-08T03:22:21.391Z,4.06
2023-04-08T03:24:48.158Z,4.02
2023-04-08T03:27:14.784Z,4.06
2023-04-08T03:29:41.560Z,4.04
2023-04-08T03:32:08.263Z,4.03
2023-04-08T03:34:35.620Z,4.03
2023-04-08T03:37:02.530Z,4.00
2023-04-08T03:39:29.236Z,3.99
2023-04-08T03:41:55.890Z,4.03
2023-04-08T03:44:22.752Z,4.00
2023-04-08T03:46:49.377Z,3.99
2023-04-08T03:49:16.023Z,4.03
2023-04-08T03:51:42.631Z,4.02
2023-04-08T03:54:09.343Z,3.97
2023-04-08T03:56:35.962Z,4.02
2023-04-08T03:59:02.824Z,4.04
2023-04-08T04:01:30.856Z,4.07
2023-04-08T04:03:57.815Z,4.05
2023-04-08T04:06:24.900Z,4.03
2023-04-08T04:08:53.925Z,4.01
2023-04-08T04:11:21.955Z,3.98
2023-04-08T04:13:49.170Z,3.94
2023-04-08T04:16:15.935Z,3.92
2023-04-08T04:18:42.868Z,3.92
2023-04-08T04:21:09.825Z,3.79
2023-04-08T04:23:36.502Z,3.82
2023-04-08T04:26:08.399Z,3.91
2023-04-08T04:28:34.985Z,3.92
2023-04-08T04:31:01.712Z,3.96
2023-04-08T04:33:28.412Z,3.93
2023-04-08T04:35:55.106Z,3.93
2023-04-08T04:38:21.741Z,3.89
2023-04-08T04:40:48.595Z,3.92
2023-04-08T04:43:15.327Z,3.92
2023-04-08T04:45:42.009Z,3.98
2023-04-08T04:48:08.646Z,3.96
2023-04-08T04:50:35.336Z,3.93
2023-04-08T04:53:01.946Z,4.03
2023-04-08T04:55:28.741Z,3.99
2023-04-08T04:57:55.359Z,3.99
2023-04-08T05:00:21.996Z,3.99
2023-04-08T05:02:48.889Z,4.03
2023-04-08T05:05:16.214Z,4.00
2023-04-08T05:07:42.819Z,3.97
2023-04-08T05:10:11.038Z,3.93
2023-04-08T05:12:38.920Z,3.96
2023-04-08T05:15:06.557Z,3.97
2023-04-08T05:17:33.348Z,3.94
2023-04-08T05:20:00.331Z,4.02
2023-04-08T05:22:27.011Z,4.00
2023-04-08T05:24:53.603Z,4.03
2023-04-08T05:27:21.710Z,4.11
2023-04-08T05:29:48.684Z,4.08
2023-04-08T05:32:16.961Z,4.07
2023-04-08T05:34:44.087Z,4.20
2023-04-08T05:37:11.053Z,4.28
2023-04-08T05:39:37.787Z,4.27
2023-04-08T05:42:04.442Z,4.35
2023-04-08T05:44:31.170Z,4.31
2023-04-08T05:46:58.336Z,4.39
2023-04-08T05:49:25.069Z,4.44
2023-04-08T05:51:51.728Z,4.36
2023-04-08T05:54:21.270Z,4.44
2023-04-08T05:56:48.919Z,4.45
2023-04-08T05:59:15.828Z,4.59
2023-04-08T06:01:42.692Z,4.61
2023-04-08T06:04:09.647Z,4.65
2023-04-08T06:06:39.045Z,4.50
2023-04-08T06:09:05.947Z,4.47
2023-04-08T06:11:32.610Z,4.44
2023-04-08T06:13:59.238Z,4.48
2023-04-08T06:16:25.981Z,4.54
2023-04-08T06:18:53.025Z,4.58
2023-04-08T06:21:19.932Z,4.56
2023-04-08T06:23:46.544Z,4.51
2023-04-08T06:26:13.433Z,4.57
2023-04-08T06:28:40.426Z,4.71
2023-04-08T06:31:07.105Z,4.80
2023-04-08T06:33:36.109Z,4.87
2023-04-08T06:36:04.056Z,4.98
2023-04-08T06:38:31.959Z,4.76
2023-04-08T06:41:08.223Z,4.63
2023-04-08T06:43:35.553Z,4.58
2023-04-08T06:46:02.174Z,4.64
2023-04-08T06:48:30.560Z,4.62
2023-04-08T06:50:58.135Z,4.64
2023-04-08T06:53:25.598Z,4.69
2023-04-08T06:55:52.541Z,4.70
2023-04-08T06:58:19.181Z,4.74
2023-04-08T07:00:45.877Z,4.82
2023-04-08T07:03:12.847Z,4.89
2023-04-08T07:05:39.705Z,5.16
2023-04-08T07:08:06.616Z,5.17
2023-04-08T07:10:34.928Z,5.24
2023-04-08T07:13:01.900Z,5.19
2023-04-08T07:15:28.566Z,5.25
2023-04-08T07:17:58.870Z,5.22
2023-04-08T07:20:26.078Z,5.27
2023-04-08T07:22:52.767Z,5.11
2023-04-08T07:25:19.446Z,5.16
2023-04-08T07:27:46.189Z,5.13
2023-04-08T07:30:12.829Z,5.25
2023-04-08T07:32:39.600Z,5.35
2023-04-08T07:35:06.552Z,5.37
2023-04-08T07:37:33.239Z,5.32
2023-04-08T07:39:59.879Z,5.46
2023-04-08T07:42:27.319Z,5.45
2023-04-08T07:44:54.048Z,5.51
2023-04-08T07:47:21.147Z,5.36
2023-04-08T07:49:48.406Z,5.39
2023-04-08T07:52:15.698Z,5.50
2023-04-08T07:54:42.336Z,5.62
2023-04-08T07:57:08.990Z,5.72
2023-04-08T07:59:36.168Z,6.01
2023-04-08T08:02:03.353Z,6.15
2023-04-08T08:04:30.280Z,6.31
2023-04-08T08:06:57.258Z,6.26
2023-04-08T08:09:23.955Z,6.23
2023-04-08T08:11:50.852Z,6.21
2023-04-08T08:14:17.545Z,6.30
2023-04-08T08:16:44.743Z,6.05
2023-04-08T08:19:12.431Z,6.15
2023-04-08T08:21:39.662Z,6.29
2023-04-08T08:24:07.020Z,6.02
2023-04-08T08:26:37.059Z,5.89
2023-04-08T08:29:08.612Z,5.97
2023-04-08T08:31:35.773Z,6.12
2023-04-08T08:34:02.932Z,6.05
2023-04-08T08:36:29.608Z,6.22
2023-04-08T08:38:56.386Z,6.23
2023-04-08T08:41:25.906Z,6.36
2023-04-08T08:43:52.871Z,6.56
2023-04-08T08:46:19.684Z,6.75
2023-04-08T08:48:46.592Z,6.50
2023-04-08T08:51:14.721Z,6.55
2023-04-08T08:53:45.683Z,6.78
2023-04-08T08:58:42.577Z,6.59
2023-04-08T09:01:35.597Z,6.57
2023-04-08T09:04:17.317Z,6.55
2023-04-08T09:06:46.616Z,6.80
2023-04-08T09:09:13.832Z,6.64
2023-04-08T09:11:42.429Z,6.78
2023-04-08T09:14:22.547Z,6.61
2023-04-08T09:16:52.018Z,6.78
2023-04-08T09:19:21.892Z,7.05
2023-04-08T09:22:05.877Z,7.01
2023-04-08T09:24:32.644Z,6.92
2023-04-08T09:26:59.410Z,7.17
2023-04-08T09:29:32.422Z,7.31
2023-04-08T09:32:01.865Z,7.49
2023-04-08T09:34:29.728Z,7.42
2023-04-08T09:36:56.765Z,7.57
2023-04-08T09:39:24.048Z,7.65
2023-04-08T09:41:53.222Z,7.55
2023-04-08T09:44:22.163Z,7.62
2023-04-08T09:47:01.433Z,7.73
2023-04-08T09:49:50.176Z,7.72
2023-04-08T09:52:35.620Z,7.78
2023-04-08T09:55:06.620Z,7.59
2023-04-08T09:57:56.670Z,7.75
2023-04-08T10:00:31.719Z,7.73
2023-04-08T10:03:01.917Z,7.84
2023-04-08T10:05:29.641Z,7.43
2023-04-08T10:07:56.954Z,7.68
2023-04-08T10:10:24.660Z,7.61
2023-04-08T10:13:00.982Z,7.51
2023-04-08T10:24:08.117Z,7.47
2023-04-08T10:35:17.406Z,7.92
2023-04-08T10:37:44.349Z,7.91
2023-04-08T10:40:20.566Z,8.13
2023-04-08T10:42:48.076Z,7.84
2023-04-08T10:45:18.286Z,7.76
2023-04-08T10:47:46.672Z,7.73
2023-04-08T10:50:14.976Z,7.70
2023-04-08T10:52:52.484Z,7.97
2023-04-08T10:55:26.670Z,8.20
2023-04-08T10:57:54.486Z,8.30
2023-04-08T11:00:36.855Z,8.11
2023-04-08T11:03:05.196Z,8.63
2023-04-08T11:05:32.952Z,8.74
2023-04-08T11:08:00.531Z,8.71
2023-04-08T11:10:28.752Z,8.67
2023-04-08T11:12:56.695Z,8.74
2023-04-08T11:15:38.099Z,9.13
2023-04-08T11:18:07.876Z,8.73
2023-04-08T11:20:40.478Z,8.25
2023-04-08T11:23:23.061Z,8.45
2023-04-08T11:25:50.004Z,8.73
2023-04-08T11:28:16.996Z,8.86
2023-04-08T11:30:44.110Z,8.75
2023-04-08T11:33:13.423Z,9.17
2023-04-08T11:35:44.609Z,9.16
2023-04-08T11:38:12.164Z,9.38
2023-04-08T11:40:56.312Z,9.51
2023-04-08T11:43:23.499Z,9.51
2023-04-08T11:46:10.912Z,9.17
2023-04-08T11:48:43.081Z,8.92
2023-04-08T11:51:09.869Z,9.18
2023-04-08T11:53:39.428Z,9.36
2023-04-08T11:56:17.363Z,8.97
2023-04-08T11:58:44.215Z,8.84
2023-04-08T12:01:11.279Z,9.38
2023-04-08T12:03:42.679Z,9.12
2023-04-08T12:06:09.656Z,9.08
2023-04-08T12:08:36.609Z,8.98
2023-04-08T12:11:16.552Z,8.82
2023-04-08T12:13:46.135Z,9.44
2023-04-08T12:16:12.919Z,9.18
2023-04-08T12:18:45.119Z,9.04
2023-04-08T12:21:11.874Z,8.98
2023-04-08T12:23:41.807Z,9.29
2023-04-08T12:26:17.209Z,9.44
2023-04-08T12:28:43.925Z,9.60
2023-04-08T12:31:15.500Z,9.13
2023-04-08T12:33:47.663Z,9.39
2023-04-08T12:36:14.390Z,9.60
2023-04-08T12:38:43.782Z,9.38
2023-04-08T12:41:10.577Z,9.29
2023-04-08T12:43:37.696Z,9.23
2023-04-08T12:46:05.863Z,8.84
2023-04-08T12:48:37.190Z,9.08
2023-04-08T12:51:03.916Z,9.55
2023-04-08T12:53:30.564Z,9.17
2023-04-08T12:55:57.639Z,9.13
2023-04-08T12:58:25.397Z,9.16
2023-04-08T13:00:52.191Z,9.27
2023-04-08T13:03:19.104Z,9.27
2023-04-08T13:05:55.717Z,8.91
2023-04-08T13:08:23.275Z,8.77
2023-04-08T13:10:50.442Z,8.77
2023-04-08T13:13:24.703Z,8.59
2023-04-08T13:15:52.292Z,8.72
2023-04-08T13:18:18.974Z,8.75
2023-04-08T13:20:45.912Z,8.60
2023-04-08T13:23:14.529Z,8.43
2023-04-08T13:25:41.768Z,8.56
2023-04-08T13:28:08.737Z,8.69
2023-04-08T13:30:35.752Z,8.68
2023-04-08T13:33:02.447Z,8.53
2023-04-08T13:35:29.178Z,8.50
2023-04-08T13:37:56.096Z,8.81
2023-04-08T13:40:22.761Z,9.07
2023-04-08T13:42:49.403Z,8.83
2023-04-08T13:45:16.026Z,8.71
2023-04-08T13:47:45.008Z,8.81
2023-04-08T13:50:19.539Z,8.81
2023-04-08T13:52:46.600Z,8.78
2023-04-08T13:55:16.218Z,8.67
2023-04-08T13:57:52.138Z,8.75
2023-04-08T14:00:18.816Z,8.58
2023-04-08T14:02:47.276Z,8.49
2023-04-08T14:05:25.602Z,8.43
2023-04-08T14:07:52.341Z,8.35
2023-04-08T14:10:19.072Z,8.42
2023-04-08T14:12:51.000Z,8.36
2023-04-08T14:15:17.719Z,8.29
2023-04-08T14:17:47.559Z,8.22
2023-04-08T14:20:24.721Z,8.23
2023-04-08T14:22:51.362Z,8.21
2023-04-08T14:25:20.004Z,8.35
2023-04-08T14:27:57.962Z,8.38
2023-04-08T14:30:26.901Z,8.46
2023-04-08T14:32:54.486Z,8.33
2023-04-08T14:35:24.626Z,8.55
2023-04-08T14:37:51.284Z,8.71
2023-04-08T14:40:18.050Z,8.65
2023-04-08T14:42:45.575Z,8.77
2023-04-08T14:45:14.472Z,8.82
2023-04-08T14:47:46.751Z,8.61
2023-04-08T14:50:16.803Z,8.65
2023-04-08T14:52:45.314Z,8.75
2023-04-08T14:55:18.265Z,8.84
2023-04-08T14:57:48.024Z,8.57
2023-04-08T15:00:15.016Z,8.75
2023-04-08T15:02:47.977Z,8.93
2023-04-08T15:05:14.651Z,8.71
2023-04-08T15:07:41.957Z,8.85
2023-04-08T15:10:09.380Z,8.87
2023-04-08T15:12:36.454Z,9.02
2023-04-08T15:15:04.570Z,8.92
2023-04-08T15:17:31.354Z,8.96
2023-04-08T15:19:58.789Z,8.95
2023-04-08T15:22:34.334Z,8.73
2023-04-08T15:25:03.861Z,8.71
2023-04-08T15:27:31.339Z,8.40
2023-04-08T15:30:06.303Z,8.29
2023-04-08T15:32:33.138Z,8.26
2023-04-08T15:35:00.654Z,8.42
2023-04-08T15:37:38.037Z,8.31
2023-04-08T15:40:07.620Z,8.24
2023-04-08T15:42:35.653Z,8.37
2023-04-08T15:45:07.969Z,8.38
2023-04-08T15:47:35.305Z,8.17
2023-04-08T15:50:02.230Z,8.00
2023-04-08T15:52:29.168Z,8.00
2023-04-08T15:54:55.836Z,7.95
2023-04-08T15:57:26.734Z,7.95
2023-04-08T15:59:53.658Z,8.00
2023-04-08T16:02:23.163Z,8.07
2023-04-08T16:04:52.142Z,8.09
2023-04-08T16:07:19.109Z,7.95
2023-04-08T16:09:45.990Z,7.68
2023-04-08T16:12:14.765Z,7.62
2023-04-08T16:14:41.438Z,7.57
2023-04-08T16:17:10.680Z,7.56
2023-04-08T16:19:37.767Z,7.61
2023-04-08T16:22:04.517Z,7.63
2023-04-08T16:24:31.230Z,7.60
2023-04-08T16:26:57.878Z,7.53
2023-04-08T16:29:24.663Z,7.49
2023-04-08T16:31:53.415Z,7.41
2023-04-08T16:34:23.190Z,7.40
2023-04-08T16:36:49.988Z,7.44
2023-04-08T16:39:16.696Z,7.47
2023-04-08T16:41:43.650Z,7.44
2023-04-08T16:44:12.530Z,7.40
2023-04-08T16:46:39.280Z,7.30
2023-04-08T16:49:06.035Z,7.28
2023-04-08T16:51:32.654Z,7.30
2023-04-08T16:53:59.775Z,7.29
2023-04-08T16:56:27.174Z,7.21
2023-04-08T16:58:53.921Z,7.22
2023-04-08T17:01:20.967Z,7.17
2023-04-08T17:03:48.816Z,7.13
2023-04-08T17:06:15.762Z,7.04
2023-04-08T17:08:45.906Z,6.98
2023-04-08T17:11:14.544Z,6.99
2023-04-08T17:13:42.916Z,7.03
2023-04-08T17:16:17.157Z,6.99
2023-04-08T17:18:44.800Z,7.00
2023-04-08T17:21:12.466Z,6.97
2023-04-08T17:23:39.177Z,6.96
2023-04-08T17:26:11.920Z,6.96
2023-04-08T17:28:39.303Z,6.95
2023-04-08T17:31:06.345Z,6.94
2023-04-08T17:33:50.616Z,6.85
2023-04-08T17:36:17.991Z,6.78
2023-04-08T17:38:44.894Z,6.69
2023-04-08T17:41:13.390Z,6.66
2023-04-08T17:43:42.497Z,6.56
2023-04-08T17:46:09.255Z,6.68
2023-04-08T17:48:36.633Z,6.66
2023-04-08T17:51:05.683Z,6.71
2023-04-08T17:53:38.829Z,6.73
2023-04-08T17:56:09.197Z,6.71
2023-04-08T17:58:36.079Z,6.78
2023-04-08T18:01:05.555Z,6.71
2023-04-08T18:03:35.238Z,6.65
2023-04-08T18:06:04.084Z,6.72
2023-04-08T18:08:33.349Z,6.64
2023-04-08T18:11:00.048Z,6.56
2023-04-08T18:13:26.764Z,6.53
2023-04-08T18:15:53.580Z,6.55
2023-04-08T18:18:22.010Z,6.54
2023-04-08T18:20:52.418Z,6.56
2023-04-08T18:23:19.270Z,6.57
2023-04-08T18:25:46.768Z,6.52
2023-04-08T18:28:13.673Z,6.46
2023-04-08T18:30:40.732Z,6.45
2023-04-08T18:33:07.684Z,6.36
2023-04-08T18:35:34.575Z,6.28
2023-04-08T18:38:01.282Z,6.33
2023-04-08T18:40:28.084Z,6.46
2023-04-08T18:42:54.810Z,6.40
2023-04-08T18:45:21.557Z,6.35
2023-04-08T18:47:48.323Z,6.35
2023-04-08T18:50:15.088Z,6.33
2023-04-08T18:52:41.952Z,6.37
2023-04-08T18:55:08.960Z,6.38
2023-04-08T18:57:35.860Z,6.36
2023-04-08T19:00:02.609Z,6.35
2023-04-08T19:02:29.408Z,6.34
2023-04-08T19:04:56.389Z,6.29
2023-04-08T19:07:23.404Z,6.29
2023-04-08T19:09:50.034Z,6.24
2023-04-08T19:12:16.784Z,6.29
2023-04-08T19:14:43.517Z,6.27
2023-04-08T19:17:11.079Z,6.25
2023-04-08T19:19:38.903Z,6.27
2023-04-08T19:22:06.109Z,6.26
2023-04-08T19:24:33.316Z,6.25
2023-04-08T19:27:00.538Z,6.26
2023-04-08T19:29:29.745Z,6.26
2023-04-08T19:31:57.413Z,6.31
2023-04-08T19:34:24.157Z,6.29
2023-04-08T19:36:50.892Z,6.31
2023-04-08T19:39:18.535Z,6.25
2023-04-08T19:41:45.667Z,6.25
2023-04-08T19:44:14.570Z,6.29
2023-04-08T19:46:41.328Z,6.22
2023-04-08T19:49:08.074Z,6.18
2023-04-08T19:51:34.770Z,6.23
2023-04-08T19:54:01.540Z,6.15
2023-04-08T19:56:32.482Z,6.19
2023-04-08T19:58:59.775Z,6.07
2023-04-08T20:01:26.602Z,6.10
2023-04-08T20:03:53.463Z,6.10
2023-04-08T20:06:20.720Z,6.07
2023-04-08T20:08:49.203Z,6.07
2023-04-08T20:11:16.120Z,6.12
2023-04-08T20:13:43.156Z,6.13
2023-04-08T20:16:09.837Z,6.12
2023-04-08T20:18:36.575Z,6.13
2023-04-08T20:21:03.513Z,6.04
2023-04-08T20:23:33.425Z,5.91
2023-04-08T20:26:00.142Z,5.66
2023-04-08T20:28:27.184Z,5.47
2023-04-08T20:30:54.171Z,5.31
2023-04-08T20:33:21.087Z,5.17
2023-04-08T20:35:50.553Z,5.03
2023-04-08T20:38:17.640Z,4.95
2023-04-08T20:40:44.829Z,4.89
2023-04-08T20:43:11.736Z,4.82
2023-04-08T20:45:38.333Z,4.84
2023-04-08T20:48:05.829Z,4.71
2023-04-08T20:50:32.884Z,4.62
2023-04-08T20:52:59.813Z,4.57
2023-04-08T20:55:26.477Z,4.53
2023-04-08T20:57:53.160Z,4.46
2023-04-08T21:00:19.959Z,4.37
2023-04-08T21:02:47.987Z,4.37
2023-04-08T21:05:14.998Z,4.37
2023-04-08T21:07:44.486Z,4.35
2023-04-08T21:10:12.650Z,4.30
2023-04-08T21:12:39.328Z,4.34
2023-04-08T21:15:06.242Z,4.35
2023-04-08T21:17:32.965Z,4.44
2023-04-08T21:19:59.652Z,4.41
2023-04-08T21:22:26.356Z,4.42
2023-04-08T21:24:53.003Z,4.40
2023-04-08T21:27:19.649Z,4.34
2023-04-08T21:29:46.265Z,4.37
2023-04-08T21:32:14.920Z,4.34
2023-04-08T21:34:41.932Z,4.25
2023-04-08T21:37:08.598Z,4.21
2023-04-08T21:39:35.337Z,4.19
2023-04-08T21:42:02.028Z,4.10
2023-04-08T21:44:31.472Z,4.06
2023-04-08T21:47:00.406Z,3.95
2023-04-08T21:49:29.813Z,3.86
2023-04-08T21:51:56.596Z,3.74
2023-04-08T21:54:23.433Z,3.62
2023-04-08T21:56:50.222Z,3.56
2023-04-08T21:59:16.854Z,3.52
2023-04-08T22:01:43.580Z,3.50
2023-04-08T22:04:10.346Z,3.50
2023-04-08T22:06:37.040Z,3.52
2023-04-08T22:09:03.935Z,3.47
2023-04-08T22:11:30.866Z,3.38
2023-04-08T22:13:57.627Z,3.35
2023-04-08T22:16:24.493Z,3.26
2023-04-08T22:18:51.471Z,3.15
2023-04-08T22:21:18.514Z,3.15
2023-04-08T22:23:46.090Z,3.22
2023-04-08T22:26:13.513Z,3.23
2023-04-08T22:28:41.997Z,3.19
2023-04-08T22:31:11.001Z,2.98
2023-04-08T22:33:41.560Z,2.92
2023-04-08T22:36:08.259Z,2.92
2023-04-08T22:38:35.596Z,3.02
2023-04-08T22:41:02.303Z,3.06
2023-04-08T22:43:28.935Z,3.13
2023-04-08T22:45:55.779Z,3.21
2023-04-08T22:48:22.413Z,3.21
2023-04-08T22:50:49.028Z,3.10
2023-04-08T22:53:15.791Z,3.12
2023-04-08T22:55:42.427Z,3.05
2023-04-08T22:58:09.053Z,3.16
2023-04-08T23:00:35.709Z,3.15
2023-04-08T23:03:04.781Z,3.10
2023-04-08T23:05:31.734Z,3.05
2023-04-08T23:07:58.477Z,3.15
2023-04-08T23:10:25.295Z,3.03
2023-04-08T23:12:51.927Z,2.89
2023-04-08T23:15:18.670Z,2.83
2023-04-08T23:17:45.359Z,2.80
2023-04-08T23:20:12.408Z,2.89
2023-04-08T23:22:39.026Z,2.89
2023-04-08T23:25:06.423Z,3.03
2023-04-08T23:27:33.104Z,3.07
2023-04-08T23:30:05.437Z,3.11
2023-04-08T23:32:35.720Z,3.08
2023-04-08T23:35:02.860Z,3.01
2023-04-08T23:37:29.610Z,3.01
2023-04-08T23:39:56.355Z,2.94
2023-04-08T23:42:27.208Z,2.89
2023-04-08T23:44:54.767Z,2.80
2023-04-08T23:47:21.721Z,2.76
2023-04-08T23:49:49.146Z,2.75
2023-04-08T23:52:15.867Z,2.74
2023-04-08T23:54:42.601Z,2.79
2023-04-08T23:57:09.196Z,2.70
2023-04-08T23:59:35.898Z,2.48
